Terminal Aerodrome Forecast
Issued by NWS

Home | Current Version | Previous Version | Text Only | Print | Product List | Glossary On
Versions: 1 2 3 4 5 6 7 8 9 10 11 12 13 14 15 16 17 18 19 20 21 22 23 24 25 26 27 28 29 30 31 32 33 34 35 36 37 38 39 40 41 42 43 44 45 46 47 48 49 50
000
FTUS41 KALY 201737
TAFPSF
TAF
KPSF 201737Z 2018/2118 26010G16KT P6SM SCT040 BKN100
     FM202200 28008KT P6SM VCSH BKN040 BKN100
     FM210100 27007KT P6SM BKN040
     FM210600 VRB03KT 6SM BR SCT010 BKN040
     FM210900 28004KT 3SM BR BKN010
     FM211200 27008KT P6SM SCT025
     FM211500 29012G18KT P6SM SCT050=

USA.gov is the U.S. government's official web portal to all federal, state and local government web resources and services.